Waggoner, Illinois
Current Conditions -  °F | °C
As of 4:15 PM on Tuesday 25 Nov 2014 (Local Time) from K3LF Reporting Station
Clear Clear  
Wind Chill: 30°   Ceiling: Unl
Heat Index: 34°   Visibility: 10mi
Dew Point: 25°   Wind: 5mph
Humidity: 70%   Direction: 250°WSW
Pressure: 30.15"   Gusts: NA
Location:  39.38°N, 89.65°W
Report Text: K3LF 252215Z AUTO 25004KT 10SM CLR 01/M04 A3015 RMK AO2 T00121038
Loading
Personal Weather Stations






























Interactive Weather Map New forecast layout! Learn more

10-Day Weather Forecast

Advertisements
Track Severe Weather on mobile